TimeEDT,TemperatureF,Dew PointF,Humidity,Sea Level PressureIn,VisibilityMPH,Wind Direction,Wind SpeedMPH,Gust SpeedMPH,PrecipitationIn,Events,Conditions,WindDirDegrees,DateUTC
12:08 AM,42.8,42.8,100,30.00,3.0,WNW,10.4,-,0.07,Rain,Rain,300,2012-10-06 04:08:00
12:53 AM,43.0,41.0,93,30.00,10.0,West,9.2,-,0.16,Rain,Light Rain,280,2012-10-06 04:53:00
1:28 AM,42.8,41.0,93,30.00,10.0,West,8.1,26.5,0.00,,Overcast,270,2012-10-06 05:28:00
1:53 AM,43.0,41.0,93,30.01,10.0,West,8.1,-,0.00,,Overcast,260,2012-10-06 05:53:00
2:53 AM,43.0,41.0,93,30.01,10.0,WSW,8.1,-,N/A,,Overcast,250,2012-10-06 06:53:00
3:14 AM,42.8,39.2,87,30.00,10.0,West,11.5,-,N/A,,Mostly Cloudy,260,2012-10-06 07:14:00
3:53 AM,41.0,39.0,93,29.99,10.0,WSW,9.2,-,N/A,,Clear,250,2012-10-06 07:53:00
4:53 AM,39.0,37.0,93,30.00,10.0,West,8.1,-,N/A,,Clear,260,2012-10-06 08:53:00
5:53 AM,37.9,37.0,97,30.00,10.0,WSW,9.2,-,N/A,,Clear,240,2012-10-06 09:53:00
7:53 AM,37.0,35.1,93,30.04,10.0,WSW,10.4,-,N/A,,Clear,250,2012-10-06 11:53:00
8:53 AM,39.0,36.0,89,30.06,10.0,West,12.7,-,N/A,,Clear,260,2012-10-06 12:53:00
10:53 AM,46.9,39.0,74,30.08,10.0,West,12.7,-,N/A,,Clear,270,2012-10-06 14:53:00
11:53 AM,50.0,37.9,63,30.07,10.0,West,13.8,-,N/A,,Mostly Cloudy,260,2012-10-06 15:53:00
12:53 PM,48.9,35.1,59,30.08,10.0,WNW,12.7,-,N/A,,Mostly Cloudy,290,2012-10-06 16:53:00
1:53 PM,52.0,37.0,57,30.06,10.0,WSW,15.0,20.7,N/A,,Scattered Clouds,250,2012-10-06 17:53:00
2:53 PM,52.0,36.0,54,30.05,10.0,West,12.7,-,N/A,,Mostly Cloudy,260,2012-10-06 18:53:00
3:53 PM,53.1,35.1,50,30.05,10.0,WNW,13.8,19.6,N/A,,Overcast,300,2012-10-06 19:53:00
4:53 PM,51.1,34.0,52,30.06,10.0,WNW,10.4,18.4,N/A,,Mostly Cloudy,290,2012-10-06 20:53:00
5:53 PM,50.0,34.0,54,30.07,10.0,NW,12.7,-,N/A,,Overcast,320,2012-10-06 21:53:00
6:53 PM,46.9,33.1,59,30.10,10.0,WNW,9.2,18.4,N/A,,Overcast,300,2012-10-06 22:53:00
7:53 PM,46.0,33.1,61,30.12,10.0,WNW,8.1,-,N/A,,Overcast,290,2012-10-06 23:53:00
8:53 PM,46.0,34.0,63,30.13,10.0,WNW,8.1,-,N/A,,Overcast,290,2012-10-07 00:53:00
9:53 PM,44.1,34.0,68,30.12,10.0,WNW,6.9,-,N/A,,Overcast,300,2012-10-07 01:53:00
10:53 PM,44.1,35.1,71,30.12,10.0,NW,8.1,-,N/A,,Partly Cloudy,310,2012-10-07 02:53:00
11:53 PM,44.1,35.1,71,30.12,10.0,NW,9.2,-,N/A,,Overcast,320,2012-10-07 03:53:00